createdAt,value
2024-03-16T00:01:03.704Z,8.70
2024-03-16T00:04:00.845Z,8.50
2024-03-16T00:06:59.248Z,8.40
2024-03-16T00:09:56.239Z,8.30
2024-03-16T00:12:53.181Z,8.30
2024-03-16T00:15:52.713Z,8.30
2024-03-16T00:18:49.745Z,8.20
2024-03-16T00:21:46.860Z,8.10
2024-03-16T00:24:44.042Z,8.10
2024-03-16T00:27:41.040Z,8.00
2024-03-16T00:30:38.324Z,8.00
2024-03-16T00:33:35.291Z,8.10
2024-03-16T00:36:32.396Z,8.00
2024-03-16T00:39:29.598Z,8.00
2024-03-16T00:42:26.981Z,7.90
2024-03-16T00:45:24.137Z,7.90
2024-03-16T00:48:21.072Z,7.80
2024-03-16T00:51:17.931Z,7.90
2024-03-16T00:54:15.290Z,7.90
2024-03-16T00:57:12.191Z,7.80
2024-03-16T01:00:10.859Z,7.70
2024-03-16T01:03:07.925Z,7.70
2024-03-16T01:06:04.898Z,7.80
2024-03-16T01:09:01.813Z,7.70
2024-03-16T01:11:58.717Z,7.70
2024-03-16T01:14:55.647Z,7.70
2024-03-16T01:17:52.626Z,7.70
2024-03-16T01:20:49.644Z,7.70
2024-03-16T01:23:47.097Z,7.80
2024-03-16T01:26:45.109Z,7.70
2024-03-16T01:29:41.972Z,7.70
2024-03-16T01:32:38.908Z,7.80
2024-03-16T01:35:35.774Z,7.80
2024-03-16T01:38:32.658Z,7.80
2024-03-16T01:41:29.511Z,7.70
2024-03-16T01:44:26.363Z,7.80
2024-03-16T01:47:23.274Z,7.90
2024-03-16T01:50:20.528Z,8.00
2024-03-16T01:53:17.446Z,7.80
2024-03-16T01:56:14.375Z,7.80
2024-03-16T01:59:13.433Z,7.80
2024-03-16T02:02:37.530Z,7.70
2024-03-16T02:05:37.346Z,7.80
2024-03-16T02:08:34.233Z,7.90
2024-03-16T02:11:31.146Z,7.90
2024-03-16T02:14:28.391Z,7.80
2024-03-16T02:17:25.314Z,7.90
2024-03-16T02:20:22.187Z,7.90
2024-03-16T02:23:19.251Z,8.00
2024-03-16T02:26:18.076Z,8.00
2024-03-16T02:29:15.884Z,7.90
2024-03-16T02:32:12.770Z,7.90
2024-03-16T02:35:10.329Z,8.00
2024-03-16T02:38:07.213Z,7.90
2024-03-16T02:41:04.355Z,7.80
2024-03-16T02:44:02.197Z,7.90
2024-03-16T02:46:59.920Z,7.90
2024-03-16T02:49:56.800Z,7.90
2024-03-16T02:52:54.622Z,7.90
2024-03-16T02:55:51.486Z,8.00
2024-03-16T02:58:48.451Z,7.90
2024-03-16T03:01:45.794Z,7.90
2024-03-16T03:04:42.931Z,7.80
2024-03-16T03:07:39.802Z,7.80
2024-03-16T03:10:37.917Z,7.90
2024-03-16T03:13:34.834Z,7.90
2024-03-16T03:16:31.706Z,7.80
2024-03-16T03:19:28.608Z,7.80
2024-03-16T03:22:25.481Z,8.00
2024-03-16T03:25:23.021Z,8.00
2024-03-16T03:28:20.130Z,8.10
2024-03-16T03:31:17.381Z,8.10
2024-03-16T03:34:14.354Z,8.00
2024-03-16T03:37:13.541Z,8.20
2024-03-16T03:40:11.006Z,8.20
2024-03-16T03:43:18.098Z,8.20
2024-03-16T03:46:40.384Z,8.30
2024-03-16T03:49:39.582Z,8.40
2024-03-16T03:52:37.836Z,8.40
2024-03-16T03:55:35.067Z,8.60
2024-03-16T03:58:31.945Z,8.60
2024-03-16T04:01:28.948Z,8.70
2024-03-16T04:04:25.846Z,8.80
2024-03-16T04:07:22.749Z,8.80
2024-03-16T04:10:19.984Z,8.80
2024-03-16T04:13:16.987Z,8.80
2024-03-16T04:16:15.887Z,8.90
2024-03-16T04:19:13.014Z,8.80
2024-03-16T04:22:10.015Z,8.80
2024-03-16T04:25:13.133Z,8.80
2024-03-16T04:28:10.979Z,8.90
2024-03-16T04:31:08.070Z,8.90
2024-03-16T04:34:04.994Z,8.90
2024-03-16T04:37:01.980Z,8.90
2024-03-16T04:39:59.671Z,8.90
2024-03-16T04:42:56.642Z,9.00
2024-03-16T04:45:53.614Z,8.90
2024-03-16T04:48:50.658Z,8.90
2024-03-16T04:51:47.572Z,9.00
2024-03-16T04:54:44.504Z,9.00
2024-03-16T04:57:41.618Z,9.00
2024-03-16T05:00:38.952Z,9.00
2024-03-16T05:03:36.484Z,8.90
2024-03-16T05:06:34.818Z,8.90
2024-03-16T05:09:31.851Z,8.90
2024-03-16T05:12:28.797Z,8.90
2024-03-16T05:15:25.910Z,9.00
2024-03-16T05:18:22.786Z,8.90
2024-03-16T05:21:20.374Z,9.00
2024-03-16T05:24:17.269Z,8.90
2024-03-16T05:27:16.262Z,9.00
2024-03-16T05:30:13.337Z,8.90
2024-03-16T05:33:10.299Z,8.90
2024-03-16T05:36:07.539Z,8.90
2024-03-16T05:39:04.433Z,8.80
2024-03-16T05:42:01.304Z,8.90
2024-03-16T05:44:59.817Z,9.00
2024-03-16T05:47:56.792Z,8.90
2024-03-16T05:50:54.815Z,8.80
2024-03-16T05:53:52.609Z,8.80
2024-03-16T05:56:50.747Z,8.90
2024-03-16T05:59:49.711Z,8.80
2024-03-16T06:02:46.681Z,8.80
2024-03-16T06:05:46.690Z,8.80
2024-03-16T06:08:43.554Z,8.80
2024-03-16T06:11:41.170Z,8.80
2024-03-16T06:14:38.066Z,8.80
2024-03-16T06:17:34.980Z,8.90
2024-03-16T06:20:31.878Z,8.90
2024-03-16T06:23:28.810Z,9.00
2024-03-16T06:26:29.249Z,8.90
2024-03-16T06:29:27.310Z,9.00
2024-03-16T06:32:24.603Z,8.90
2024-03-16T06:35:21.506Z,8.90
2024-03-16T06:38:18.368Z,8.90
2024-03-16T06:41:15.492Z,8.90
2024-03-16T06:44:12.387Z,8.90
2024-03-16T06:47:09.448Z,8.80
2024-03-16T06:50:08.161Z,8.90
2024-03-16T06:53:05.319Z,9.00
2024-03-16T06:56:05.175Z,9.00
2024-03-16T06:59:02.034Z,8.90
2024-03-16T07:01:58.939Z,8.90
2024-03-16T07:04:57.248Z,8.90
2024-03-16T07:07:54.183Z,9.00
2024-03-16T07:10:51.060Z,9.00
2024-03-16T07:13:48.011Z,9.00
2024-03-16T07:16:44.950Z,9.00
2024-03-16T07:19:42.049Z,9.00
2024-03-16T07:22:41.751Z,9.00
2024-03-16T07:25:38.742Z,9.10
2024-03-16T07:28:37.408Z,9.10
2024-03-16T07:31:34.718Z,9.20
2024-03-16T07:34:32.553Z,9.20
2024-03-16T07:37:29.553Z,9.10
2024-03-16T07:40:26.618Z,9.20
2024-03-16T07:43:23.537Z,9.30
2024-03-16T07:46:23.289Z,9.20
2024-03-16T07:49:21.790Z,9.10
2024-03-16T07:52:18.950Z,9.10
2024-03-16T07:55:15.968Z,9.20
2024-03-16T07:58:13.065Z,9.20
2024-03-16T08:01:11.572Z,9.30
2024-03-16T08:04:08.759Z,9.20
2024-03-16T08:07:05.674Z,9.20
2024-03-16T08:10:04.463Z,9.20
2024-03-16T08:13:01.698Z,9.30
2024-03-16T08:16:00.401Z,9.30
2024-03-16T08:18:57.833Z,9.30
2024-03-16T08:21:54.778Z,9.30
2024-03-16T08:24:51.857Z,9.40
2024-03-16T08:27:48.795Z,9.40
2024-03-16T08:30:45.739Z,9.40
2024-03-16T08:33:42.687Z,9.50
2024-03-16T08:36:41.818Z,9.40
2024-03-16T08:39:42.204Z,9.40
2024-03-16T08:42:42.368Z,9.40
2024-03-16T08:45:43.154Z,9.40
2024-03-16T08:48:41.051Z,9.40
2024-03-16T08:52:06.043Z,9.40
2024-03-16T08:55:23.801Z,9.30
2024-03-16T08:58:49.942Z,9.40
2024-03-16T09:01:50.916Z,9.30
2024-03-16T09:05:06.684Z,9.40
2024-03-16T09:08:25.145Z,9.40
2024-03-16T09:11:28.478Z,9.60
2024-03-16T09:17:38.193Z,9.60
2024-03-16T09:20:45.377Z,9.50
2024-03-16T09:23:45.264Z,9.60
2024-03-16T09:26:42.473Z,9.70
2024-03-16T09:29:43.134Z,9.60
2024-03-16T09:32:43.403Z,9.50
2024-03-16T09:35:40.531Z,9.60
2024-03-16T09:38:37.786Z,9.70
2024-03-16T09:41:34.777Z,9.70
